sensor_id;sensor_type;location;lat;lon;timestamp;P1;durP1;ratioP1;P2;durP2;ratioP2
57667;SDS011;43499;52.366;12.912;2023-07-22T00:00:09;0.50;;;0.50;;
57667;SDS011;43499;52.366;12.912;2023-07-22T00:01:15;0.40;;;0.40;;
57667;SDS011;43499;52.366;12.912;2023-07-22T00:02:16;0.40;;;0.40;;
57667;SDS011;43499;52.366;12.912;2023-07-22T00:03:17;0.50;;;0.50;;
57667;SDS011;43499;52.366;12.912;2023-07-22T00:04:18;0.40;;;0.40;;
57667;SDS011;43499;52.366;12.912;2023-07-22T00:05:19;0.40;;;0.40;;
57667;SDS011;43499;52.366;12.912;2023-07-22T00:06:23;0.40;;;0.40;;
57667;SDS011;43499;52.366;12.912;2023-07-22T00:07:24;0.40;;;0.40;;
57667;SDS011;43499;52.366;12.912;2023-07-22T00:08:25;0.40;;;0.40;;
57667;SDS011;43499;52.366;12.912;2023-07-22T00:09:26;0.65;;;0.65;;
57667;SDS011;43499;52.366;12.912;2023-07-22T00:10:27;0.30;;;0.30;;
57667;SDS011;43499;52.366;12.912;2023-07-22T00:11:28;0.77;;;0.77;;
57667;SDS011;43499;52.366;12.912;2023-07-22T00:12:28;2.58;;;1.90;;
57667;SDS011;43499;52.366;12.912;2023-07-22T00:13:29;1.73;;;1.60;;
57667;SDS011;43499;52.366;12.912;2023-07-22T00:14:30;3.70;;;2.63;;
57667;SDS011;43499;52.366;12.912;2023-07-22T00:15:31;1.10;;;1.10;;
57667;SDS011;43499;52.366;12.912;2023-07-22T00:16:32;0.40;;;0.40;;
57667;SDS011;43499;52.366;12.912;2023-07-22T00:17:33;0.40;;;0.40;;
57667;SDS011;43499;52.366;12.912;2023-07-22T00:18:34;0.38;;;0.38;;
57667;SDS011;43499;52.366;12.912;2023-07-22T00:19:35;0.30;;;0.30;;
57667;SDS011;43499;52.366;12.912;2023-07-22T00:20:36;0.30;;;0.30;;
57667;SDS011;43499;52.366;12.912;2023-07-22T00:21:37;0.30;;;0.30;;
57667;SDS011;43499;52.366;12.912;2023-07-22T00:22:38;0.30;;;0.30;;
57667;SDS011;43499;52.366;12.912;2023-07-22T00:23:40;0.30;;;0.30;;
57667;SDS011;43499;52.366;12.912;2023-07-22T00:24:41;0.20;;;0.20;;
57667;SDS011;43499;52.366;12.912;2023-07-22T00:25:42;0.20;;;0.20;;
57667;SDS011;43499;52.366;12.912;2023-07-22T00:26:43;0.20;;;0.20;;
57667;SDS011;43499;52.366;12.912;2023-07-22T00:27:44;0.25;;;0.25;;
57667;SDS011;43499;52.366;12.912;2023-07-22T00:28:44;0.20;;;0.20;;
57667;SDS011;43499;52.366;12.912;2023-07-22T00:29:45;0.30;;;0.30;;
57667;SDS011;43499;52.366;12.912;2023-07-22T00:30:46;0.20;;;0.20;;
57667;SDS011;43499;52.366;12.912;2023-07-22T00:31:49;0.20;;;0.20;;
57667;SDS011;43499;52.366;12.912;2023-07-22T00:32:50;0.25;;;0.25;;
57667;SDS011;43499;52.366;12.912;2023-07-22T00:33:51;0.30;;;0.30;;
57667;SDS011;43499;52.366;12.912;2023-07-22T00:34:52;0.30;;;0.30;;
57667;SDS011;43499;52.366;12.912;2023-07-22T00:35:53;0.20;;;0.20;;
57667;SDS011;43499;52.366;12.912;2023-07-22T00:36:54;0.30;;;0.30;;
57667;SDS011;43499;52.366;12.912;2023-07-22T00:37:55;0.30;;;0.30;;
57667;SDS011;43499;52.366;12.912;2023-07-22T00:38:56;0.20;;;0.20;;
57667;SDS011;43499;52.366;12.912;2023-07-22T00:39:57;0.20;;;0.20;;
57667;SDS011;43499;52.366;12.912;2023-07-22T00:40:58;0.20;;;0.20;;
57667;SDS011;43499;52.366;12.912;2023-07-22T00:41:59;0.30;;;0.30;;
57667;SDS011;43499;52.366;12.912;2023-07-22T00:43:00;0.30;;;0.30;;
57667;SDS011;43499;52.366;12.912;2023-07-22T00:44:01;0.30;;;0.30;;
57667;SDS011;43499;52.366;12.912;2023-07-22T00:45:02;0.22;;;0.22;;
57667;SDS011;43499;52.366;12.912;2023-07-22T00:46:03;0.30;;;0.30;;
57667;SDS011;43499;52.366;12.912;2023-07-22T00:47:04;0.30;;;0.30;;
57667;SDS011;43499;52.366;12.912;2023-07-22T00:48:05;0.22;;;0.22;;
57667;SDS011;43499;52.366;12.912;2023-07-22T00:49:07;0.20;;;0.20;;
57667;SDS011;43499;52.366;12.912;2023-07-22T00:50:08;0.20;;;0.20;;
57667;SDS011;43499;52.366;12.912;2023-07-22T00:51:09;0.20;;;0.20;;
57667;SDS011;43499;52.366;12.912;2023-07-22T00:52:10;0.28;;;0.28;;
57667;SDS011;43499;52.366;12.912;2023-07-22T00:53:10;0.30;;;0.30;;
57667;SDS011;43499;52.366;12.912;2023-07-22T00:54:11;0.20;;;0.20;;
57667;SDS011;43499;52.366;12.912;2023-07-22T00:55:13;0.30;;;0.30;;
57667;SDS011;43499;52.366;12.912;2023-07-22T00:56:14;0.30;;;0.30;;
57667;SDS011;43499;52.366;12.912;2023-07-22T00:57:15;0.30;;;0.30;;
57667;SDS011;43499;52.366;12.912;2023-07-22T00:58:16;0.30;;;0.30;;
57667;SDS011;43499;52.366;12.912;2023-07-22T00:59:17;0.25;;;0.25;;
57667;SDS011;43499;52.366;12.912;2023-07-22T01:00:18;0.20;;;0.20;;
57667;SDS011;43499;52.366;12.912;2023-07-22T01:01:19;0.30;;;0.30;;
57667;SDS011;43499;52.366;12.912;2023-07-22T01:02:20;0.30;;;0.30;;
57667;SDS011;43499;52.366;12.912;2023-07-22T01:03:21;0.20;;;0.20;;
57667;SDS011;43499;52.366;12.912;2023-07-22T01:04:21;0.20;;;0.20;;
57667;SDS011;43499;52.366;12.912;2023-07-22T01:05:23;0.40;;;0.40;;
57667;SDS011;43499;52.366;12.912;2023-07-22T01:06:26;0.30;;;0.30;;
57667;SDS011;43499;52.366;12.912;2023-07-22T01:07:29;0.20;;;0.20;;
57667;SDS011;43499;52.366;12.912;2023-07-22T01:08:30;0.30;;;0.30;;
57667;SDS011;43499;52.366;12.912;2023-07-22T01:09:35;0.30;;;0.30;;
57667;SDS011;43499;52.366;12.912;2023-07-22T01:10:36;0.30;;;0.30;;
57667;SDS011;43499;52.366;12.912;2023-07-22T01:11:37;0.20;;;0.20;;
57667;SDS011;43499;52.366;12.912;2023-07-22T01:12:37;0.25;;;0.25;;
57667;SDS011;43499;52.366;12.912;2023-07-22T01:13:39;0.30;;;0.30;;
57667;SDS011;43499;52.366;12.912;2023-07-22T01:14:40;0.30;;;0.30;;
57667;SDS011;43499;52.366;12.912;2023-07-22T01:15:42;0.25;;;0.25;;
57667;SDS011;43499;52.366;12.912;2023-07-22T01:16:43;0.22;;;0.22;;
57667;SDS011;43499;52.366;12.912;2023-07-22T01:17:44;0.30;;;0.30;;
57667;SDS011;43499;52.366;12.912;2023-07-22T01:18:45;0.30;;;0.30;;
57667;SDS011;43499;52.366;12.912;2023-07-22T01:19:46;0.28;;;0.28;;
57667;SDS011;43499;52.366;12.912;2023-07-22T01:20:48;0.20;;;0.20;;
57667;SDS011;43499;52.366;12.912;2023-07-22T01:21:49;0.30;;;0.30;;
57667;SDS011;43499;52.366;12.912;2023-07-22T01:22:51;0.30;;;0.30;;
57667;SDS011;43499;52.366;12.912;2023-07-22T01:23:53;0.20;;;0.20;;
57667;SDS011;43499;52.366;12.912;2023-07-22T01:24:54;0.30;;;0.30;;
57667;SDS011;43499;52.366;12.912;2023-07-22T01:25:55;0.30;;;0.30;;
57667;SDS011;43499;52.366;12.912;2023-07-22T01:26:56;0.28;;;0.28;;
57667;SDS011;43499;52.366;12.912;2023-07-22T01:27:57;0.20;;;0.20;;
57667;SDS011;43499;52.366;12.912;2023-07-22T01:29:04;0.30;;;0.30;;
57667;SDS011;43499;52.366;12.912;2023-07-22T01:30:06;0.25;;;0.25;;
57667;SDS011;43499;52.366;12.912;2023-07-22T01:31:11;0.20;;;0.20;;
57667;SDS011;43499;52.366;12.912;2023-07-22T01:32:12;0.30;;;0.30;;
57667;SDS011;43499;52.366;12.912;2023-07-22T01:33:13;0.30;;;0.30;;
57667;SDS011;43499;52.366;12.912;2023-07-22T01:34:14;0.30;;;0.30;;
57667;SDS011;43499;52.366;12.912;2023-07-22T01:35:15;0.22;;;0.22;;
57667;SDS011;43499;52.366;12.912;2023-07-22T01:36:16;0.30;;;0.30;;
57667;SDS011;43499;52.366;12.912;2023-07-22T01:37:18;0.20;;;0.20;;
57667;SDS011;43499;52.366;12.912;2023-07-22T01:38:19;0.30;;;0.30;;
57667;SDS011;43499;52.366;12.912;2023-07-22T01:39:20;0.20;;;0.20;;
57667;SDS011;43499;52.366;12.912;2023-07-22T01:40:23;0.30;;;0.30;;
57667;SDS011;43499;52.366;12.912;2023-07-22T01:41:25;0.30;;;0.30;;
57667;SDS011;43499;52.366;12.912;2023-07-22T01:42:26;0.30;;;0.30;;
57667;SDS011;43499;52.366;12.912;2023-07-22T01:43:27;0.30;;;0.30;;
57667;SDS011;43499;52.366;12.912;2023-07-22T01:44:28;0.30;;;0.30;;
57667;SDS011;43499;52.366;12.912;2023-07-22T01:45:29;0.30;;;0.30;;
57667;SDS011;43499;52.366;12.912;2023-07-22T01:46:30;0.20;;;0.20;;
57667;SDS011;43499;52.366;12.912;2023-07-22T01:47:30;0.30;;;0.30;;
57667;SDS011;43499;52.366;12.912;2023-07-22T01:48:32;0.30;;;0.30;;
57667;SDS011;43499;52.366;12.912;2023-07-22T01:49:33;0.20;;;0.20;;
57667;SDS011;43499;52.366;12.912;2023-07-22T01:50:34;0.30;;;0.30;;
57667;SDS011;43499;52.366;12.912;2023-07-22T01:51:35;0.30;;;0.30;;
57667;SDS011;43499;52.366;12.912;2023-07-22T01:52:38;0.30;;;0.30;;
57667;SDS011;43499;52.366;12.912;2023-07-22T01:53:39;0.30;;;0.30;;
57667;SDS011;43499;52.366;12.912;2023-07-22T01:54:40;0.30;;;0.30;;
57667;SDS011;43499;52.366;12.912;2023-07-22T01:55:41;0.50;;;0.50;;
57667;SDS011;43499;52.366;12.912;2023-07-22T01:56:42;0.30;;;0.30;;
57667;SDS011;43499;52.366;12.912;2023-07-22T01:57:43;0.50;;;0.50;;
57667;SDS011;43499;52.366;12.912;2023-07-22T01:58:44;0.63;;;0.63;;
57667;SDS011;43499;52.366;12.912;2023-07-22T01:59:45;0.40;;;0.40;;
57667;SDS011;43499;52.366;12.912;2023-07-22T02:00:49;0.30;;;0.30;;
57667;SDS011;43499;52.366;12.912;2023-07-22T02:01:50;0.60;;;0.60;;
57667;SDS011;43499;52.366;12.912;2023-07-22T02:02:52;1.00;;;1.00;;
57667;SDS011;43499;52.366;12.912;2023-07-22T02:03:53;1.27;;;1.17;;
57667;SDS011;43499;52.366;12.912;2023-07-22T02:04:53;3.95;;;2.42;;
57667;SDS011;43499;52.366;12.912;2023-07-22T02:06:00;0.35;;;0.35;;
57667;SDS011;43499;52.366;12.912;2023-07-22T02:07:02;1.85;;;1.73;;
57667;SDS011;43499;52.366;12.912;2023-07-22T02:08:03;3.17;;;2.10;;
57667;SDS011;43499;52.366;12.912;2023-07-22T02:09:04;3.33;;;2.38;;
57667;SDS011;43499;52.366;12.912;2023-07-22T02:10:09;2.28;;;1.70;;
57667;SDS011;43499;52.366;12.912;2023-07-22T02:11:12;4.28;;;2.60;;
57667;SDS011;43499;52.366;12.912;2023-07-22T02:12:13;3.58;;;2.60;;
57667;SDS011;43499;52.366;12.912;2023-07-22T02:13:15;3.08;;;2.13;;
57667;SDS011;43499;52.366;12.912;2023-07-22T02:14:16;3.83;;;2.38;;
57667;SDS011;43499;52.366;12.912;2023-07-22T02:15:17;0.90;;;0.90;;
57667;SDS011;43499;52.366;12.912;2023-07-22T02:16:18;1.50;;;1.40;;
57667;SDS011;43499;52.366;12.912;2023-07-22T02:17:19;1.50;;;1.42;;
57667;SDS011;43499;52.366;12.912;2023-07-22T02:18:21;1.15;;;1.15;;
57667;SDS011;43499;52.366;12.912;2023-07-22T02:19:22;2.10;;;1.92;;
57667;SDS011;43499;52.366;12.912;2023-07-22T02:20:22;2.17;;;1.98;;
57667;SDS011;43499;52.366;12.912;2023-07-22T02:21:24;1.77;;;1.67;;
57667;SDS011;43499;52.366;12.912;2023-07-22T02:22:25;1.63;;;1.52;;
57667;SDS011;43499;52.366;12.912;2023-07-22T02:23:26;1.60;;;1.50;;
57667;SDS011;43499;52.366;12.912;2023-07-22T02:24:27;1.60;;;1.50;;
57667;SDS011;43499;52.366;12.912;2023-07-22T02:25:28;1.60;;;1.50;;
57667;SDS011;43499;52.366;12.912;2023-07-22T02:26:29;1.92;;;1.63;;
57667;SDS011;43499;52.366;12.912;2023-07-22T02:27:29;1.83;;;1.73;;
57667;SDS011;43499;52.366;12.912;2023-07-22T02:28:30;2.30;;;2.10;;
57667;SDS011;43499;52.366;12.912;2023-07-22T02:29:32;1.92;;;1.73;;
57667;SDS011;43499;52.366;12.912;2023-07-22T02:30:36;2.30;;;2.10;;
57667;SDS011;43499;52.366;12.912;2023-07-22T02:31:37;1.90;;;1.73;;
57667;SDS011;43499;52.366;12.912;2023-07-22T02:32:38;1.70;;;1.60;;
57667;SDS011;43499;52.366;12.912;2023-07-22T02:33:40;1.80;;;1.70;;
57667;SDS011;43499;52.366;12.912;2023-07-22T02:34:41;2.95;;;2.25;;
57667;SDS011;43499;52.366;12.912;2023-07-22T02:35:42;2.92;;;1.95;;
57667;SDS011;43499;52.366;12.912;2023-07-22T02:36:43;1.75;;;1.65;;
57667;SDS011;43499;52.366;12.912;2023-07-22T02:37:44;0.50;;;0.50;;
57667;SDS011;43499;52.366;12.912;2023-07-22T02:38:45;0.40;;;0.40;;
57667;SDS011;43499;52.366;12.912;2023-07-22T02:39:47;0.85;;;0.85;;
57667;SDS011;43499;52.366;12.912;2023-07-22T02:40:48;0.40;;;0.40;;
57667;SDS011;43499;52.366;12.912;2023-07-22T02:41:49;0.50;;;0.50;;
57667;SDS011;43499;52.366;12.912;2023-07-22T02:42:50;0.30;;;0.30;;
57667;SDS011;43499;52.366;12.912;2023-07-22T02:43:51;0.40;;;0.40;;
57667;SDS011;43499;52.366;12.912;2023-07-22T02:44:51;0.30;;;0.30;;
57667;SDS011;43499;52.366;12.912;2023-07-22T02:45:53;0.30;;;0.30;;
57667;SDS011;43499;52.366;12.912;2023-07-22T02:46:54;0.30;;;0.30;;
57667;SDS011;43499;52.366;12.912;2023-07-22T02:47:55;0.40;;;0.40;;
57667;SDS011;43499;52.366;12.912;2023-07-22T02:48:55;0.30;;;0.30;;
57667;SDS011;43499;52.366;12.912;2023-07-22T02:49:56;0.20;;;0.20;;
57667;SDS011;43499;52.366;12.912;2023-07-22T02:51:07;0.30;;;0.30;;
57667;SDS011;43499;52.366;12.912;2023-07-22T02:52:08;0.30;;;0.30;;
57667;SDS011;43499;52.366;12.912;2023-07-22T02:53:09;0.30;;;0.30;;
57667;SDS011;43499;52.366;12.912;2023-07-22T02:54:10;0.20;;;0.20;;
57667;SDS011;43499;52.366;12.912;2023-07-22T02:55:14;0.30;;;0.30;;
57667;SDS011;43499;52.366;12.912;2023-07-22T02:56:15;0.30;;;0.30;;
57667;SDS011;43499;52.366;12.912;2023-07-22T02:57:16;0.30;;;0.30;;
57667;SDS011;43499;52.366;12.912;2023-07-22T02:58:17;0.30;;;0.30;;
57667;SDS011;43499;52.366;12.912;2023-07-22T02:59:18;0.32;;;0.32;;
57667;SDS011;43499;52.366;12.912;2023-07-22T03:00:19;0.30;;;0.30;;
57667;SDS011;43499;52.366;12.912;2023-07-22T03:01:23;0.30;;;0.30;;
57667;SDS011;43499;52.366;12.912;2023-07-22T03:02:25;0.30;;;0.30;;
57667;SDS011;43499;52.366;12.912;2023-07-22T03:03:26;0.50;;;0.50;;
57667;SDS011;43499;52.366;12.912;2023-07-22T03:04:27;0.45;;;0.45;;
57667;SDS011;43499;52.366;12.912;2023-07-22T03:05:28;0.73;;;0.73;;
57667;SDS011;43499;52.366;12.912;2023-07-22T03:06:29;0.70;;;0.70;;
57667;SDS011;43499;52.366;12.912;2023-07-22T03:07:32;0.30;;;0.30;;
57667;SDS011;43499;52.366;12.912;2023-07-22T03:08:32;0.20;;;0.20;;
57667;SDS011;43499;52.366;12.912;2023-07-22T03:09:34;0.20;;;0.20;;
57667;SDS011;43499;52.366;12.912;2023-07-22T03:10:35;0.20;;;0.20;;
57667;SDS011;43499;52.366;12.912;2023-07-22T03:11:35;0.30;;;0.30;;
57667;SDS011;43499;52.366;12.912;2023-07-22T03:12:36;0.30;;;0.30;;
57667;SDS011;43499;52.366;12.912;2023-07-22T03:13:37;0.30;;;0.30;;
57667;SDS011;43499;52.366;12.912;2023-07-22T03:14:38;0.68;;;0.68;;
57667;SDS011;43499;52.366;12.912;2023-07-22T03:15:39;0.88;;;0.88;;
57667;SDS011;43499;52.366;12.912;2023-07-22T03:16:40;0.75;;;0.75;;
57667;SDS011;43499;52.366;12.912;2023-07-22T03:17:40;0.30;;;0.30;;
57667;SDS011;43499;52.366;12.912;2023-07-22T03:18:44;0.22;;;0.22;;
57667;SDS011;43499;52.366;12.912;2023-07-22T03:19:45;0.30;;;0.30;;
57667;SDS011;43499;52.366;12.912;2023-07-22T03:20:46;0.20;;;0.20;;
57667;SDS011;43499;52.366;12.912;2023-07-22T03:21:48;0.20;;;0.20;;
57667;SDS011;43499;52.366;12.912;2023-07-22T03:22:48;0.30;;;0.30;;
57667;SDS011;43499;52.366;12.912;2023-07-22T03:23:49;0.30;;;0.30;;
57667;SDS011;43499;52.366;12.912;2023-07-22T03:24:51;0.30;;;0.30;;
57667;SDS011;43499;52.366;12.912;2023-07-22T03:25:52;0.30;;;0.30;;
57667;SDS011;43499;52.366;12.912;2023-07-22T03:26:53;0.30;;;0.30;;
57667;SDS011;43499;52.366;12.912;2023-07-22T03:27:54;0.30;;;0.30;;
57667;SDS011;43499;52.366;12.912;2023-07-22T03:28:54;0.30;;;0.30;;
57667;SDS011;43499;52.366;12.912;2023-07-22T03:29:55;0.30;;;0.30;;
57667;SDS011;43499;52.366;12.912;2023-07-22T03:30:56;0.30;;;0.30;;
57667;SDS011;43499;52.366;12.912;2023-07-22T03:31:57;0.25;;;0.25;;
57667;SDS011;43499;52.366;12.912;2023-07-22T03:32:58;0.25;;;0.25;;
57667;SDS011;43499;52.366;12.912;2023-07-22T03:33:59;0.30;;;0.30;;
57667;SDS011;43499;52.366;12.912;2023-07-22T03:35:01;0.30;;;0.30;;
57667;SDS011;43499;52.366;12.912;2023-07-22T03:36:05;0.30;;;0.30;;
57667;SDS011;43499;52.366;12.912;2023-07-22T03:37:06;0.20;;;0.20;;
57667;SDS011;43499;52.366;12.912;2023-07-22T03:38:06;0.30;;;0.30;;
57667;SDS011;43499;52.366;12.912;2023-07-22T03:39:08;0.30;;;0.30;;
57667;SDS011;43499;52.366;12.912;2023-07-22T03:40:09;0.20;;;0.20;;
57667;SDS011;43499;52.366;12.912;2023-07-22T03:41:27;0.20;;;0.20;;
57667;SDS011;43499;52.366;12.912;2023-07-22T03:42:28;0.30;;;0.30;;
57667;SDS011;43499;52.366;12.912;2023-07-22T03:43:30;0.30;;;0.30;;
57667;SDS011;43499;52.366;12.912;2023-07-22T03:44:30;0.20;;;0.20;;
57667;SDS011;43499;52.366;12.912;2023-07-22T03:45:31;0.20;;;0.20;;
57667;SDS011;43499;52.366;12.912;2023-07-22T03:46:32;0.30;;;0.30;;
57667;SDS011;43499;52.366;12.912;2023-07-22T03:47:33;0.20;;;0.20;;
57667;SDS011;43499;52.366;12.912;2023-07-22T03:48:34;0.30;;;0.30;;
57667;SDS011;43499;52.366;12.912;2023-07-22T03:49:35;0.30;;;0.30;;
57667;SDS011;43499;52.366;12.912;2023-07-22T03:50:36;0.30;;;0.30;;
57667;SDS011;43499;52.366;12.912;2023-07-22T03:51:36;0.28;;;0.28;;
57667;SDS011;43499;52.366;12.912;2023-07-22T03:52:37;0.20;;;0.20;;
57667;SDS011;43499;52.366;12.912;2023-07-22T03:53:38;0.28;;;0.28;;
57667;SDS011;43499;52.366;12.912;2023-07-22T03:54:39;0.30;;;0.30;;
57667;SDS011;43499;52.366;12.912;2023-07-22T03:55:41;0.22;;;0.22;;
57667;SDS011;43499;52.366;12.912;2023-07-22T03:56:41;0.30;;;0.30;;
57667;SDS011;43499;52.366;12.912;2023-07-22T03:57:42;0.30;;;0.30;;
57667;SDS011;43499;52.366;12.912;2023-07-22T03:58:43;0.30;;;0.30;;
57667;SDS011;43499;52.366;12.912;2023-07-22T03:59:44;0.20;;;0.20;;
57667;SDS011;43499;52.366;12.912;2023-07-22T04:00:48;0.30;;;0.30;;
57667;SDS011;43499;52.366;12.912;2023-07-22T04:01:48;0.20;;;0.20;;
57667;SDS011;43499;52.366;12.912;2023-07-22T04:02:49;0.30;;;0.30;;
57667;SDS011;43499;52.366;12.912;2023-07-22T04:03:50;0.40;;;0.40;;
57667;SDS011;43499;52.366;12.912;2023-07-22T04:04:51;0.30;;;0.30;;
57667;SDS011;43499;52.366;12.912;2023-07-22T04:05:53;0.38;;;0.38;;
57667;SDS011;43499;52.366;12.912;2023-07-22T04:06:54;0.30;;;0.30;;
57667;SDS011;43499;52.366;12.912;2023-07-22T04:07:55;0.20;;;0.20;;
57667;SDS011;43499;52.366;12.912;2023-07-22T04:08:55;0.30;;;0.30;;
57667;SDS011;43499;52.366;12.912;2023-07-22T04:09:56;0.30;;;0.30;;
57667;SDS011;43499;52.366;12.912;2023-07-22T04:10:58;0.30;;;0.30;;
57667;SDS011;43499;52.366;12.912;2023-07-22T04:11:59;0.30;;;0.30;;
57667;SDS011;43499;52.366;12.912;2023-07-22T04:13:00;0.30;;;0.30;;
57667;SDS011;43499;52.366;12.912;2023-07-22T04:14:01;0.20;;;0.20;;
57667;SDS011;43499;52.366;12.912;2023-07-22T04:15:02;0.22;;;0.22;;
57667;SDS011;43499;52.366;12.912;2023-07-22T04:16:05;0.30;;;0.30;;
57667;SDS011;43499;52.366;12.912;2023-07-22T04:17:06;0.22;;;0.22;;
57667;SDS011;43499;52.366;12.912;2023-07-22T04:18:07;0.30;;;0.30;;
57667;SDS011;43499;52.366;12.912;2023-07-22T04:19:08;0.30;;;0.30;;
57667;SDS011;43499;52.366;12.912;2023-07-22T04:20:10;0.35;;;0.35;;
57667;SDS011;43499;52.366;12.912;2023-07-22T04:21:10;0.30;;;0.30;;
57667;SDS011;43499;52.366;12.912;2023-07-22T04:22:11;0.30;;;0.30;;
57667;SDS011;43499;52.366;12.912;2023-07-22T04:23:12;0.30;;;0.30;;
57667;SDS011;43499;52.366;12.912;2023-07-22T04:24:13;0.30;;;0.30;;
57667;SDS011;43499;52.366;12.912;2023-07-22T04:25:14;0.30;;;0.30;;
57667;SDS011;43499;52.366;12.912;2023-07-22T04:26:16;0.30;;;0.30;;
57667;SDS011;43499;52.366;12.912;2023-07-22T04:27:16;0.30;;;0.30;;
57667;SDS011;43499;52.366;12.912;2023-07-22T04:28:17;0.30;;;0.30;;
57667;SDS011;43499;52.366;12.912;2023-07-22T04:29:18;0.30;;;0.30;;
57667;SDS011;43499;52.366;12.912;2023-07-22T04:30:19;0.30;;;0.30;;
57667;SDS011;43499;52.366;12.912;2023-07-22T04:31:21;0.30;;;0.30;;
57667;SDS011;43499;52.366;12.912;2023-07-22T04:32:22;0.30;;;0.30;;
57667;SDS011;43499;52.366;12.912;2023-07-22T04:33:24;0.30;;;0.30;;
57667;SDS011;43499;52.366;12.912;2023-07-22T04:34:29;0.30;;;0.30;;
57667;SDS011;43499;52.366;12.912;2023-07-22T04:35:31;0.30;;;0.30;;
57667;SDS011;43499;52.366;12.912;2023-07-22T04:36:32;0.30;;;0.30;;
57667;SDS011;43499;52.366;12.912;2023-07-22T04:37:33;0.30;;;0.30;;
57667;SDS011;43499;52.366;12.912;2023-07-22T04:38:34;0.30;;;0.30;;
57667;SDS011;43499;52.366;12.912;2023-07-22T04:39:35;0.30;;;0.30;;
57667;SDS011;43499;52.366;12.912;2023-07-22T04:40:36;0.47;;;0.47;;
57667;SDS011;43499;52.366;12.912;2023-07-22T04:41:36;2.05;;;1.83;;
57667;SDS011;43499;52.366;12.912;2023-07-22T04:42:37;0.90;;;0.90;;
57667;SDS011;43499;52.366;12.912;2023-07-22T04:43:38;0.50;;;0.50;;
57667;SDS011;43499;52.366;12.912;2023-07-22T04:44:40;0.40;;;0.40;;
57667;SDS011;43499;52.366;12.912;2023-07-22T04:45:41;0.73;;;0.73;;
57667;SDS011;43499;52.366;12.912;2023-07-22T04:46:42;0.30;;;0.30;;
57667;SDS011;43499;52.366;12.912;2023-07-22T04:47:43;0.30;;;0.30;;
57667;SDS011;43499;52.366;12.912;2023-07-22T04:48:47;0.20;;;0.20;;
57667;SDS011;43499;52.366;12.912;2023-07-22T04:49:48;0.30;;;0.30;;
57667;SDS011;43499;52.366;12.912;2023-07-22T04:50:49;0.30;;;0.30;;
57667;SDS011;43499;52.366;12.912;2023-07-22T04:51:50;0.30;;;0.30;;
57667;SDS011;43499;52.366;12.912;2023-07-22T04:52:51;0.22;;;0.22;;
57667;SDS011;43499;52.366;12.912;2023-07-22T04:53:52;0.30;;;0.30;;
57667;SDS011;43499;52.366;12.912;2023-07-22T04:54:53;0.30;;;0.30;;
57667;SDS011;43499;52.366;12.912;2023-07-22T04:55:53;0.30;;;0.30;;
57667;SDS011;43499;52.366;12.912;2023-07-22T04:56:55;0.40;;;0.40;;
57667;SDS011;43499;52.366;12.912;2023-07-22T04:57:56;0.30;;;0.30;;
57667;SDS011;43499;52.366;12.912;2023-07-22T04:58:57;0.30;;;0.30;;
57667;SDS011;43499;52.366;12.912;2023-07-22T04:59:58;0.30;;;0.30;;
57667;SDS011;43499;52.366;12.912;2023-07-22T05:00:59;0.20;;;0.20;;
57667;SDS011;43499;52.366;12.912;2023-07-22T05:01:59;0.30;;;0.30;;
57667;SDS011;43499;52.366;12.912;2023-07-22T05:03:00;0.30;;;0.30;;
57667;SDS011;43499;52.366;12.912;2023-07-22T05:04:01;0.30;;;0.30;;
57667;SDS011;43499;52.366;12.912;2023-07-22T05:05:02;0.55;;;0.55;;
57667;SDS011;43499;52.366;12.912;2023-07-22T05:06:03;0.98;;;0.98;;
57667;SDS011;43499;52.366;12.912;2023-07-22T05:07:04;0.52;;;0.52;;
57667;SDS011;43499;52.366;12.912;2023-07-22T05:08:05;0.40;;;0.40;;
57667;SDS011;43499;52.366;12.912;2023-07-22T05:09:08;0.50;;;0.50;;
57667;SDS011;43499;52.366;12.912;2023-07-22T05:10:09;0.50;;;0.50;;
57667;SDS011;43499;52.366;12.912;2023-07-22T05:11:12;0.30;;;0.30;;
57667;SDS011;43499;52.366;12.912;2023-07-22T05:12:13;0.20;;;0.20;;
57667;SDS011;43499;52.366;12.912;2023-07-22T05:13:14;0.30;;;0.30;;
57667;SDS011;43499;52.366;12.912;2023-07-22T05:14:15;0.40;;;0.40;;
57667;SDS011;43499;52.366;12.912;2023-07-22T05:15:16;0.25;;;0.25;;
57667;SDS011;43499;52.366;12.912;2023-07-22T05:16:17;0.30;;;0.30;;
57667;SDS011;43499;52.366;12.912;2023-07-22T05:17:17;0.40;;;0.40;;
57667;SDS011;43499;52.366;12.912;2023-07-22T05:18:18;0.30;;;0.30;;
57667;SDS011;43499;52.366;12.912;2023-07-22T05:19:19;0.30;;;0.30;;
57667;SDS011;43499;52.366;12.912;2023-07-22T05:20:21;0.40;;;0.40;;
57667;SDS011;43499;52.366;12.912;2023-07-22T05:21:22;0.30;;;0.30;;
57667;SDS011;43499;52.366;12.912;2023-07-22T05:22:23;0.30;;;0.30;;
57667;SDS011;43499;52.366;12.912;2023-07-22T05:23:24;0.40;;;0.40;;
57667;SDS011;43499;52.366;12.912;2023-07-22T05:24:25;0.30;;;0.30;;
57667;SDS011;43499;52.366;12.912;2023-07-22T05:25:26;0.30;;;0.30;;
57667;SDS011;43499;52.366;12.912;2023-07-22T05:26:26;0.40;;;0.40;;
57667;SDS011;43499;52.366;12.912;2023-07-22T05:27:27;0.30;;;0.30;;
57667;SDS011;43499;52.366;12.912;2023-07-22T05:28:28;0.30;;;0.30;;
57667;SDS011;43499;52.366;12.912;2023-07-22T05:29:29;0.30;;;0.30;;
57667;SDS011;43499;52.366;12.912;2023-07-22T05:30:30;0.30;;;0.30;;
57667;SDS011;43499;52.366;12.912;2023-07-22T05:31:31;0.30;;;0.30;;
57667;SDS011;43499;52.366;12.912;2023-07-22T05:32:32;0.30;;;0.30;;
57667;SDS011;43499;52.366;12.912;2023-07-22T05:33:33;0.30;;;0.30;;
57667;SDS011;43499;52.366;12.912;2023-07-22T05:34:34;0.30;;;0.30;;
57667;SDS011;43499;52.366;12.912;2023-07-22T05:35:35;0.40;;;0.40;;
57667;SDS011;43499;52.366;12.912;2023-07-22T05:36:35;0.30;;;0.30;;
57667;SDS011;43499;52.366;12.912;2023-07-22T05:37:36;0.32;;;0.32;;
57667;SDS011;43499;52.366;12.912;2023-07-22T05:38:37;0.28;;;0.28;;
57667;SDS011;43499;52.366;12.912;2023-07-22T05:39:38;0.30;;;0.30;;
57667;SDS011;43499;52.366;12.912;2023-07-22T05:40:39;0.20;;;0.20;;
57667;SDS011;43499;52.366;12.912;2023-07-22T05:41:40;0.30;;;0.30;;
57667;SDS011;43499;52.366;12.912;2023-07-22T05:42:41;0.30;;;0.30;;
57667;SDS011;43499;52.366;12.912;2023-07-22T05:43:42;0.30;;;0.30;;
57667;SDS011;43499;52.366;12.912;2023-07-22T05:44:43;0.30;;;0.30;;
57667;SDS011;43499;52.366;12.912;2023-07-22T05:45:44;0.30;;;0.30;;
57667;SDS011;43499;52.366;12.912;2023-07-22T05:46:45;0.40;;;0.40;;
57667;SDS011;43499;52.366;12.912;2023-07-22T05:47:46;0.30;;;0.30;;
57667;SDS011;43499;52.366;12.912;2023-07-22T05:48:47;0.30;;;0.30;;
57667;SDS011;43499;52.366;12.912;2023-07-22T05:49:47;0.30;;;0.30;;
57667;SDS011;43499;52.366;12.912;2023-07-22T05:50:48;0.30;;;0.30;;
57667;SDS011;43499;52.366;12.912;2023-07-22T05:51:49;0.40;;;0.40;;
57667;SDS011;43499;52.366;12.912;2023-07-22T05:52:51;0.40;;;0.40;;
57667;SDS011;43499;52.366;12.912;2023-07-22T05:53:51;0.32;;;0.32;;
57667;SDS011;43499;52.366;12.912;2023-07-22T05:54:52;0.30;;;0.30;;
57667;SDS011;43499;52.366;12.912;2023-07-22T05:55:53;0.40;;;0.40;;
57667;SDS011;43499;52.366;12.912;2023-07-22T05:56:54;0.40;;;0.40;;
57667;SDS011;43499;52.366;12.912;2023-07-22T05:57:55;0.30;;;0.30;;
57667;SDS011;43499;52.366;12.912;2023-07-22T05:58:56;0.38;;;0.38;;
57667;SDS011;43499;52.366;12.912;2023-07-22T05:59:57;0.30;;;0.30;;
57667;SDS011;43499;52.366;12.912;2023-07-22T06:00:58;0.40;;;0.40;;
57667;SDS011;43499;52.366;12.912;2023-07-22T06:01:59;0.30;;;0.30;;
57667;SDS011;43499;52.366;12.912;2023-07-22T06:03:00;0.40;;;0.40;;